Aviation Digital Data Service (ADDS)

Output produced by TAFs form (0654 UTC 18 February 2018)
found at http://www.aviationweather.gov/adds/tafs/
 
KABE 180531Z 1806/1906 VRB02KT 6SM BR OVC006 
     TEMPO 1806/1808 3SM BR BKN005 OVC015 
     FM180800 27007KT P6SM BKN022 
     FM181000 29009KT P6SM BKN060 
     FM182000 26006KT P6SM SKC 
     FM190100 VRB02KT P6SM SKC